Time;durP1;ratioP1;P1;durP2;ratioP2;P2;SDS_P1;SDS_P2;PMS_P1;PMS_P2;Temp;Humidity;BMP_temperature;BMP_pressure;BME280_temperature;BME280_humidity;BME280_pressure;Samples;Min_cycle;Max_cycle;Signal;HPM_P1;HPM_P2
2021/10/26 00:01:01;;;;;;;6.03;1.85;;;6.30;95.10;;;;;;4974242;28;20081;-76
2021/10/26 00:03:27;;;;;;;4.43;1.77;;;6.30;95.10;;;;;;4974320;28;20082;-77
2021/10/26 00:05:52;;;;;;;4.50;2.17;;;6.30;94.70;;;;;;4974084;28;20029;-76
2021/10/26 00:08:18;;;;;;;;;;;6.40;94.60;;;;;;4956815;28;20414;-76
2021/10/26 00:10:43;;;;;;;6.60;2.10;;;6.30;94.50;;;;;;4974999;28;20343;-77
2021/10/26 00:13:11;;;;;;;8.43;2.50;;;6.20;94.80;;;;;;4975369;28;20149;-77
2021/10/26 00:15:37;;;;;;;7.55;2.70;;;6.10;95.00;;;;;;4957511;28;20062;-77
2021/10/26 00:18:03;;;;;;;5.72;2.50;;;5.90;95.30;;;;;;4974982;28;20037;-77
2021/10/26 00:20:31;;;;;;;6.47;2.33;;;5.90;95.60;;;;;;4956538;28;20110;-76
2021/10/26 00:22:57;;;;;;;6.25;2.78;;;5.80;95.50;;;;;;4957170;28;20030;-77
2021/10/26 00:25:23;;;;;;;8.82;3.00;;;5.70;95.70;;;;;;4975003;28;20027;-76
2021/10/26 00:27:48;;;;;;;8.73;3.08;;;5.60;96.00;;;;;;4975070;28;20026;-76
2021/10/26 00:30:14;;;;;;;;;;;5.50;96.50;;;;;;4975878;28;20121;-75
2021/10/26 00:32:41;;;;;;;5.50;2.55;;;5.40;96.70;;;;;;4958401;28;19949;-77
2021/10/26 00:35:07;;;;;;;9.48;3.42;;;5.30;96.90;;;;;;4975507;28;20030;-77
2021/10/26 00:37:33;;;;;;;9.60;4.07;;;5.30;97.20;;;;;;4959191;28;20030;-76
2021/10/26 00:39:58;;;;;;;13.23;4.47;;;5.20;97.30;;;;;;4961272;28;20099;-77
2021/10/26 00:42:24;;;;;;;;;;;5.10;97.60;;;;;;4978915;28;20137;-76
2021/10/26 00:44:49;;;;;;;15.65;3.85;;;4.90;98.20;;;;;;4975405;28;19917;-77
2021/10/26 00:47:15;;;;;;;8.88;3.72;;;4.90;98.40;;;;;;4959044;28;20019;-76
2021/10/26 00:49:41;;;;;;;10.98;5.28;;;4.70;98.90;;;;;;4976395;28;20045;-76
2021/10/26 00:52:07;;;;;;;;;;;4.70;99.20;;;;;;4960325;28;20105;-76
2021/10/26 00:54:34;;;;;;;7.72;2.90;;;4.50;99.70;;;;;;4976851;28;19912;-76
2021/10/26 00:56:59;;;;;;;9.48;3.38;;;4.50;99.90;;;;;;4960275;28;20038;-75
2021/10/26 00:59:26;;;;;;;9.48;3.30;;;4.40;99.90;;;;;;4980471;28;20031;-78
2021/10/26 01:01:52;;;;;;;13.00;3.15;;;4.30;99.90;;;;;;4981733;28;20031;-76
2021/10/26 01:04:17;;;;;;;8.63;3.13;;;4.30;99.90;;;;;;4976954;28;20170;-76
2021/10/26 01:06:46;;;;;;;7.93;2.72;;;4.20;99.90;;;;;;4959388;28;20061;-76
2021/10/26 01:09:14;;;;;;;8.55;3.38;;;4.10;99.90;;;;;;4978226;28;20023;-75
2021/10/26 01:11:40;;;;;;;14.02;3.60;;;4.10;99.90;;;;;;4977210;28;20023;-76
2021/10/26 01:14:07;;;;;;;8.10;3.22;;;4.10;99.90;;;;;;4980576;28;20039;-76
2021/10/26 01:16:33;;;;;;;7.97;2.85;;;4.00;99.90;;;;;;4982952;28;20026;-77
2021/10/26 01:18:59;;;;;;;11.23;4.28;;;4.00;99.90;;;;;;4963037;28;20035;-77
2021/10/26 01:21:25;;;;;;;;;;;4.00;99.90;;;;;;4980287;28;20037;-76
2021/10/26 01:23:50;;;;;;;10.10;2.80;;;4.00;99.90;;;;;;4963960;28;19937;-77
2021/10/26 01:26:17;;;;;;;9.32;3.40;;;4.00;99.90;;;;;;4981534;28;20023;-76
2021/10/26 01:28:43;;;;;;;18.17;3.17;;;3.90;99.90;;;;;;4977380;28;20074;-76
2021/10/26 01:31:09;;;;;;;;;;;3.90;99.90;;;;;;4960302;28;20444;-76
2021/10/26 01:33:36;;;;;;;6.05;2.60;;;3.90;99.90;;;;;;4977314;28;19914;-77
2021/10/26 01:36:02;;;;;;;7.75;3.17;;;3.80;99.90;;;;;;4977957;28;20496;-76
2021/10/26 01:38:28;;;;;;;;;;;3.80;99.90;;;;;;4975988;28;20023;-77
2021/10/26 01:40:55;;;;;;;10.80;4.53;;;3.70;99.90;;;;;;4975862;28;20155;-75
2021/10/26 01:43:21;;;;;;;11.52;4.65;;;3.70;99.90;;;;;;4978316;28;20061;-77
2021/10/26 01:45:47;;;;;;;;;;;3.70;99.90;;;;;;4960286;28;20133;-76
2021/10/26 01:48:13;;;;;;;6.22;2.50;;;3.70;99.90;;;;;;4977828;28;19913;-77
2021/10/26 01:50:38;;;;;;;;;;;3.90;99.90;;;;;;4977522;28;20030;-77
2021/10/26 01:53:04;;;;;;;10.55;2.47;;;4.20;99.90;;;;;;4976169;28;19945;-76
2021/10/26 01:55:29;;;;;;;;;;;4.40;99.90;;;;;;4977952;28;20053;-76
2021/10/26 01:57:55;;;;;;;7.13;2.10;;;4.40;99.90;;;;;;4977305;28;19906;-76
2021/10/26 02:00:21;;;;;;;7.20;2.67;;;4.50;99.90;;;;;;4978462;28;20034;-76
2021/10/26 02:02:49;;;;;;;7.45;2.47;;;4.60;99.90;;;;;;4960401;28;20035;-76
2021/10/26 02:05:16;;;;;;;8.60;2.22;;;4.70;99.90;;;;;;4961071;28;20034;-76
2021/10/26 02:07:44;;;;;;;5.88;2.30;;;4.70;99.90;;;;;;4960799;28;20041;-76
2021/10/26 02:10:10;;;;;;;7.38;2.28;;;4.80;99.90;;;;;;4977862;28;20038;-76
2021/10/26 02:12:36;;;;;;;;;;;4.80;99.90;;;;;;4960452;28;20109;-77
2021/10/26 02:15:07;;;;;;;8.20;2.75;;;4.80;99.90;;;;;;4979385;28;19933;-77
2021/10/26 02:17:33;;;;;;;8.65;2.50;;;4.70;99.90;;;;;;4983216;28;20088;-78
2021/10/26 02:19:59;;;;;;;;;;;4.90;99.90;;;;;;4977268;28;20034;-76
2021/10/26 02:22:25;;;;;;;8.70;2.75;;;4.80;99.90;;;;;;4959342;28;19917;-77
2021/10/26 02:24:50;;;;;;;;;;;4.80;99.80;;;;;;4977080;28;20034;-77
2021/10/26 02:27:18;;;;;;;10.88;3.35;;;4.90;99.80;;;;;;4976704;28;19910;-76
2021/10/26 02:29:45;;;;;;;7.57;3.65;;;4.90;99.70;;;;;;4977431;28;20381;-76
2021/10/26 02:32:11;;;;;;;14.48;4.00;;;4.80;99.80;;;;;;4976552;28;20041;-77
2021/10/26 02:34:37;;;;;;;;;;;4.60;99.90;;;;;;4960594;28;20035;-76
2021/10/26 02:37:03;;;;;;;9.07;3.65;;;4.40;99.90;;;;;;4959679;28;19906;-76
2021/10/26 02:39:29;;;;;;;11.27;4.50;;;4.20;99.90;;;;;;4978805;28;20078;-76
2021/10/26 02:41:55;;;;;;;;;;;4.10;99.90;;;;;;4978608;28;20462;-76
2021/10/26 02:44:20;;;;;;;14.15;3.78;;;4.10;99.90;;;;;;4978430;28;19910;-77
2021/10/26 02:46:46;;;;;;;10.63;4.78;;;4.00;99.90;;;;;;4960862;28;20031;-77
2021/10/26 02:49:14;;;;;;;15.50;5.60;;;3.90;99.90;;;;;;4978504;28;20491;-77
2021/10/26 02:51:40;;;;;;;18.35;5.97;;;3.90;99.90;;;;;;4978801;28;20143;-77
2021/10/26 02:54:06;;;;;;;;;;;3.80;99.90;;;;;;4965813;28;20055;-77
2021/10/26 02:56:34;;;;;;;10.63;4.43;;;3.70;99.90;;;;;;4983209;28;19910;-76
2021/10/26 02:59:00;;;;;;;16.55;6.57;;;3.80;99.90;;;;;;4977939;28;20030;-77
2021/10/26 03:01:25;;;;;;;;;;;3.70;99.90;;;;;;4960884;28;20027;-76
2021/10/26 03:03:51;;;;;;;13.38;5.60;;;3.70;99.90;;;;;;4960745;28;19906;-76
2021/10/26 03:06:17;;;;;;;10.40;4.07;;;3.70;99.90;;;;;;4959788;28;20057;-75
2021/10/26 03:08:43;;;;;;;;;;;3.70;99.90;;;;;;4978562;28;20023;-78
2021/10/26 03:11:10;;;;;;;10.07;4.25;;;3.60;99.90;;;;;;4961549;28;20299;-76
2021/10/26 03:13:36;;;;;;;17.52;6.35;;;3.60;99.90;;;;;;4978877;28;20462;-76
2021/10/26 03:16:02;;;;;;;;;;;3.60;99.90;;;;;;4962876;28;20031;-76
2021/10/26 03:18:29;;;;;;;13.27;6.07;;;3.60;99.90;;;;;;4979920;28;19974;-76
2021/10/26 03:20:58;;;;;;;;;;;3.60;99.90;;;;;;4962177;28;20027;-76
2021/10/26 03:23:25;;;;;;;14.10;6.10;;;3.60;99.90;;;;;;4962053;28;19910;-76
2021/10/26 03:25:50;;;;;;;15.75;7.13;;;3.40;99.90;;;;;;4980853;28;20101;-76
2021/10/26 03:28:16;;;;;;;;;;;3.40;99.90;;;;;;4980672;28;20073;-76
2021/10/26 03:30:42;;;;;;;14.23;4.97;;;3.40;99.90;;;;;;4978280;28;20507;-77
2021/10/26 03:33:08;;;;;;;14.32;5.95;;;3.40;99.90;;;;;;4963330;28;20414;-76
2021/10/26 03:35:34;;;;;;;;;;;3.40;99.90;;;;;;4980302;28;20023;-76
2021/10/26 03:38:01;;;;;;;17.40;6.97;;;3.40;99.90;;;;;;4981153;28;19933;-76
2021/10/26 03:40:26;;;;;;;15.55;6.63;;;3.40;99.90;;;;;;4980381;28;20038;-77
2021/10/26 03:42:52;;;;;;;;;;;3.30;99.90;;;;;;4980483;28;20026;-77
2021/10/26 03:45:18;;;;;;;11.38;4.80;;;3.30;99.90;;;;;;4979709;28;19910;-77
2021/10/26 03:47:45;;;;;;;;;;;3.30;99.90;;;;;;4982034;28;20030;-76
2021/10/26 03:50:11;;;;;;;13.13;5.28;;;3.30;99.90;;;;;;4981153;28;19944;-76
2021/10/26 03:52:37;;;;;;;22.63;6.40;;;3.30;99.90;;;;;;4983865;28;20074;-76
2021/10/26 03:55:05;;;;;;;;;;;3.20;99.90;;;;;;4965978;28;20480;-76
2021/10/26 03:57:31;;;;;;;15.52;6.07;;;3.10;99.90;;;;;;4964629;28;19973;-77
2021/10/26 03:59:56;;;;;;;;;;;3.10;99.90;;;;;;4960894;28;20057;-77
2021/10/26 04:02:25;;;;;;;20.67;8.55;;;3.00;99.90;;;;;;4975339;28;19929;-75
2021/10/26 04:04:52;;;;;;;18.25;7.88;;;2.90;99.90;;;;;;4973645;28;20508;-76
2021/10/26 04:07:18;;;;;;;21.33;9.05;;;2.90;99.90;;;;;;4957006;28;20031;-76
2021/10/26 04:09:51;;;;;;;19.00;9.40;;;2.90;99.90;;;;;;4957093;28;20031;-76
2021/10/26 04:12:24;;;;;;;14.60;7.65;;;2.90;99.90;;;;;;4957050;28;20042;-77
2021/10/26 04:14:57;;;;;;;17.13;8.52;;;2.80;99.90;;;;;;4974802;28;20099;-77
2021/10/26 04:17:25;;;;;;;17.90;8.07;;;2.80;99.90;;;;;;4975253;28;20109;-75
2021/10/26 04:19:54;;;;;;;19.40;8.73;;;2.80;99.90;;;;;;4975666;28;20031;-77
2021/10/26 04:22:21;;;;;;;19.95;7.45;;;2.80;99.90;;;;;;4974958;28;20511;-77
2021/10/26 04:24:47;;;;;;;17.02;6.65;;;2.80;99.90;;;;;;4975694;28;20022;-76
2021/10/26 04:27:14;;;;;;;16.23;7.10;;;2.90;99.90;;;;;;4975732;28;20114;-76
2021/10/26 04:29:41;;;;;;;20.42;6.80;;;2.80;99.90;;;;;;4976209;28;20082;-76
2021/10/26 04:32:09;;;;;;;13.52;6.88;;;2.80;99.90;;;;;;4976265;28;20035;-76
2021/10/26 04:34:35;;;;;;;21.00;6.10;;;2.80;99.90;;;;;;4958284;28;20396;-76
2021/10/26 04:37:00;;;;;;;;;;;2.80;99.90;;;;;;4958912;28;20035;-76
2021/10/26 04:39:26;;;;;;;14.40;5.88;;;2.80;99.90;;;;;;4975946;28;19910;-77
2021/10/26 04:41:52;;;;;;;;;;;2.70;99.90;;;;;;4977113;28;20035;-76
2021/10/26 04:44:17;;;;;;;11.95;6.03;;;2.70;99.90;;;;;;4959061;28;19969;-76
2021/10/26 04:46:43;;;;;;;;;;;2.70;99.90;;;;;;4977987;28;20661;-76
2021/10/26 04:49:09;;;;;;;34.72;10.90;;;2.70;99.90;;;;;;4964563;28;19917;-77
2021/10/26 04:51:34;;;;;;;41.83;15.07;;;2.70;99.90;;;;;;4976938;28;20515;-76
2021/10/26 04:54:01;;;;;;;;;;;2.70;99.90;;;;;;4975689;28;20783;-75
2021/10/26 04:56:27;;;;;;;46.70;15.43;;;2.70;99.90;;;;;;4979453;28;19913;-77
2021/10/26 04:58:52;;;;;;;;;;;2.70;99.90;;;;;;4961893;28;20038;-77
2021/10/26 05:01:18;;;;;;;31.10;12.25;;;2.70;99.90;;;;;;4978372;28;20342;-76
2021/10/26 05:03:44;;;;;;;;;;;2.70;99.90;;;;;;4962248;28;20774;-76
2021/10/26 05:06:10;;;;;;;35.45;13.00;;;2.70;99.90;;;;;;4978247;28;20393;-77
2021/10/26 05:08:35;;;;;;;;;;;2.60;99.90;;;;;;4979731;28;20023;-76
2021/10/26 05:11:01;;;;;;;26.45;9.05;;;2.60;99.90;;;;;;4961516;28;20395;-77
2021/10/26 05:13:29;;;;;;;;;;;2.60;99.90;;;;;;4978902;28;20096;-76
2021/10/26 05:15:59;;;;;;;28.75;10.57;;;2.70;99.90;;;;;;4979486;28;20283;-76
2021/10/26 05:18:27;;;;;;;26.15;9.90;;;2.60;99.90;;;;;;4978507;28;20022;-76
2021/10/26 05:20:53;;;;;;;20.58;8.73;;;2.60;99.90;;;;;;4962654;28;20111;-76
2021/10/26 05:23:20;;;;;;;19.83;9.00;;;2.80;99.90;;;;;;4979404;28;20116;-76
2021/10/26 05:25:50;;;;;;;20.90;7.70;;;2.80;99.90;;;;;;4980462;28;20054;-76
2021/10/26 05:28:20;;;;;;;21.48;6.43;;;3.00;99.90;;;;;;4983784;28;20022;-77
2021/10/26 05:30:46;;;;;;;15.77;6.40;;;2.90;99.90;;;;;;4977612;28;20479;-77
2021/10/26 05:33:11;;;;;;;;;;;3.00;99.90;;;;;;4974233;28;20086;-77
2021/10/26 05:35:37;;;;;;;22.92;8.43;;;3.00;99.90;;;;;;4977598;28;20647;-75
2021/10/26 05:38:02;;;;;;;;;;;3.10;99.90;;;;;;4978431;28;20031;-76
2021/10/26 05:40:28;;;;;;;37.33;11.73;;;3.10;99.90;;;;;;4978058;28;19910;-77
2021/10/26 05:42:54;;;;;;;22.83;9.63;;;3.10;99.90;;;;;;4977719;28;20380;-77
2021/10/26 05:45:19;;;;;;;;;;;3.20;99.90;;;;;;4961478;28;20031;-77
2021/10/26 05:47:45;;;;;;;19.35;8.18;;;3.20;99.90;;;;;;4979701;28;19914;-77
2021/10/26 05:50:11;;;;;;;;;;;3.20;99.90;;;;;;4978560;28;20023;-76
2021/10/26 05:52:38;;;;;;;24.27;10.93;;;3.30;99.90;;;;;;4978750;28;19918;-77
2021/10/26 05:55:05;;;;;;;35.72;13.50;;;3.30;99.90;;;;;;4961189;28;20035;-76
2021/10/26 05:57:33;;;;;;;37.97;14.95;;;3.30;99.90;;;;;;4961949;28;20487;-76
2021/10/26 05:59:59;;;;;;;37.50;14.73;;;3.30;99.90;;;;;;4980048;28;20113;-77
2021/10/26 06:02:26;;;;;;;;;;;3.40;99.90;;;;;;4980136;28;20065;-76
2021/10/26 06:04:52;;;;;;;47.50;15.33;;;3.40;99.90;;;;;;4978042;28;19910;-76
2021/10/26 06:07:18;;;;;;;;;;;3.50;99.90;;;;;;4979358;28;20045;-76
2021/10/26 06:09:43;;;;;;;41.67;16.23;;;3.60;99.90;;;;;;4961700;28;20290;-77
2021/10/26 06:12:15;;;;;;;;;;;3.80;99.90;;;;;;4977974;28;20416;-76
2021/10/26 06:14:43;;;;;;;36.10;17.33;;;3.90;99.90;;;;;;4960196;28;19965;-77
2021/10/26 06:17:09;;;;;;;36.92;15.70;;;4.10;99.90;;;;;;4978685;28;20034;-76
2021/10/26 06:19:35;;;;;;;;;;;4.50;99.90;;;;;;4981944;28;20034;-75
2021/10/26 06:22:00;;;;;;;30.60;13.73;;;5.20;99.90;;;;;;4977406;28;20004;-77
2021/10/26 06:24:26;;;;;;;48.53;12.65;;;5.90;99.90;;;;;;4974331;28;20033;-77
2021/10/26 06:26:52;;;;;;;31.38;9.95;;;6.70;99.90;;;;;;4976508;28;20031;-77
2021/10/26 06:29:18;;;;;;;;;;;7.30;99.90;;;;;;4976104;28;20034;-77
2021/10/26 06:31:43;;;;;;;27.60;10.35;;;7.80;97.50;;;;;;4971802;28;20000;-78
2021/10/26 06:34:09;;;;;;;32.42;10.05;;;8.10;97.00;;;;;;4971550;28;20043;-77
2021/10/26 06:36:35;;;;;;;;;;;8.60;96.00;;;;;;4971698;28;20031;-78
2021/10/26 06:39:00;;;;;;;15.00;7.88;;;9.00;93.90;;;;;;4971532;28;19909;-77
2021/10/26 06:41:26;;;;;;;16.70;7.10;;;9.20;93.40;;;;;;4954024;28;20034;-79
2021/10/26 06:43:51;;;;;;;;;;;9.50;92.80;;;;;;4971659;28;20105;-78
2021/10/26 06:46:17;;;;;;;13.50;6.53;;;9.40;91.40;;;;;;4954225;28;20008;-77
2021/10/26 06:48:43;;;;;;;;;;;9.30;91.80;;;;;;4954574;28;20037;-77
2021/10/26 06:51:10;;;;;;;13.55;6.18;;;9.10;91.60;;;;;;4972757;28;19913;-76
2021/10/26 06:53:39;;;;;;;17.05;7.25;;;9.00;92.30;;;;;;4973555;28;20042;-77
2021/10/26 06:56:10;;;;;;;38.10;10.98;;;8.90;92.00;;;;;;4972216;28;20030;-76
2021/10/26 06:58:35;;;;;;;30.77;13.85;;;9.00;93.00;;;;;;4956194;28;20030;-77
2021/10/26 07:01:07;;;;;;;;;;;9.00;92.80;;;;;;4973935;28;20090;-77
2021/10/26 07:03:34;;;;;;;29.25;15.52;;;9.20;92.30;;;;;;4972888;28;19906;-77
2021/10/26 07:05:59;;;;;;;22.30;12.05;;;9.30;92.30;;;;;;4971363;28;20018;-76
2021/10/26 07:08:25;;;;;;;;;;;9.50;91.50;;;;;;4971221;28;20094;-77
2021/10/26 07:10:51;;;;;;;22.08;10.60;;;9.60;90.50;;;;;;4971102;28;19910;-76
2021/10/26 07:13:17;;;;;;;;;;;9.80;90.30;;;;;;4971424;28;20087;-77
2021/10/26 07:15:45;;;;;;;17.50;8.75;;;10.10;88.20;;;;;;4970776;28;20447;-77
2021/10/26 07:18:11;;;;;;;16.75;7.75;;;10.30;87.90;;;;;;4970517;28;20050;-77
2021/10/26 07:20:36;;;;;;;;;;;10.50;87.80;;;;;;4969837;28;20146;-78
2021/10/26 07:23:02;;;;;;;12.15;6.03;;;10.60;86.80;;;;;;4953459;28;19938;-77
2021/10/26 07:25:27;;;;;;;;;;;10.80;86.80;;;;;;4971002;28;20081;-76
2021/10/26 07:27:57;;;;;;;14.73;5.20;;;10.90;85.60;;;;;;4970602;28;19906;-76
2021/10/26 07:30:24;;;;;;;11.55;4.15;;;10.90;85.20;;;;;;4953034;28;20031;-77
2021/10/26 07:32:50;;;;;;;12.88;4.65;;;11.00;83.00;;;;;;4953182;28;20046;-78
2021/10/26 07:35:16;;;;;;;;;;;10.90;81.70;;;;;;4970789;28;20526;-77
2021/10/26 07:37:45;;;;;;;14.95;5.18;;;11.00;79.70;;;;;;4970516;28;19906;-78
2021/10/26 07:40:12;;;;;;;13.13;5.50;;;11.00;79.60;;;;;;4970400;28;20027;-77
2021/10/26 07:42:38;;;;;;;10.32;5.57;;;11.00;78.20;;;;;;4970223;28;20534;-78
2021/10/26 07:45:04;;;;;;;;;;;11.10;77.50;;;;;;4953340;28;20065;-77
2021/10/26 07:47:30;;;;;;;19.53;10.00;;;11.10;75.50;;;;;;4970229;28;20398;-77
2021/10/26 07:49:56;;;;;;;;;;;11.10;75.50;;;;;;4969395;28;20035;-79
2021/10/26 07:52:22;;;;;;;17.98;7.95;;;11.00;75.70;;;;;;4970193;28;19925;-77
2021/10/26 07:54:53;;;;;;;22.92;10.18;;;11.00;76.40;;;;;;4969977;28;20109;-77
2021/10/26 07:57:26;;;;;;;22.60;11.27;;;11.00;76.30;;;;;;4952831;28;20062;-78
2021/10/26 07:59:53;;;;;;;24.35;9.95;;;11.00;76.00;;;;;;4970149;28;20111;-77
2021/10/26 08:02:20;;;;;;;17.70;8.13;;;11.10;76.00;;;;;;4970079;28;20019;-77
2021/10/26 08:04:49;;;;;;;17.05;8.32;;;11.10;75.80;;;;;;4968606;28;20035;-76
2021/10/26 08:07:16;;;;;;;24.05;8.05;;;11.20;75.50;;;;;;4952496;28;20023;-77
2021/10/26 08:09:47;;;;;;;16.25;7.15;;;11.40;74.90;;;;;;4952554;28;20123;-77
2021/10/26 08:12:12;;;;;;;20.38;6.63;;;11.70;73.70;;;;;;4969867;28;20045;-77
2021/10/26 08:14:38;;;;;;;;;;;11.70;72.70;;;;;;4968802;28;20475;-76
2021/10/26 08:17:05;;;;;;;22.90;7.25;;;12.00;71.10;;;;;;4969743;28;19921;-77
2021/10/26 08:19:30;;;;;;;18.50;8.10;;;12.30;70.80;;;;;;4969787;28;20110;-77
2021/10/26 08:21:57;;;;;;;;;;;12.50;70.10;;;;;;4970128;28;20121;-77
2021/10/26 08:24:26;;;;;;;14.85;6.85;;;12.70;67.90;;;;;;4968551;28;19914;-75
2021/10/26 08:26:58;;;;;;;18.58;11.55;;;13.10;68.00;;;;;;4968520;28;20027;-78
2021/10/26 08:37:33;;;;;;;11.93;6.15;;;15.10;59.50;;;;;;4969787;28;20511;-78
2021/10/26 08:39:59;;;;;;;10.05;5.93;;;15.50;57.90;;;;;;4969581;28;20031;-77
2021/10/26 08:42:25;;;;;;;13.20;5.60;;;15.60;56.70;;;;;;4969307;28;20031;-75
2021/10/26 08:44:52;;;;;;;9.93;5.60;;;16.10;55.90;;;;;;4952491;28;20035;-76
2021/10/26 08:47:20;;;;;;;9.90;4.75;;;16.50;54.50;;;;;;4969570;28;20038;-76
2021/10/26 08:49:51;;;;;;;15.23;5.93;;;16.80;52.80;;;;;;4969608;28;20038;-75
2021/10/26 08:52:19;;;;;;;12.00;5.70;;;17.00;51.80;;;;;;4969366;28;20047;-75
2021/10/26 08:54:46;;;;;;;11.18;5.40;;;17.20;51.40;;;;;;4969569;28;20035;-76
2021/10/26 08:57:12;;;;;;;12.02;6.00;;;17.60;49.80;;;;;;4952081;28;20088;-77
2021/10/26 08:59:37;;;;;;;17.02;5.35;;;17.90;48.40;;;;;;4952201;28;20117;-77
2021/10/26 09:02:04;;;;;;;14.00;5.82;;;18.40;48.00;;;;;;4969517;28;20027;-76
2021/10/26 09:04:32;;;;;;;17.98;6.13;;;18.80;46.80;;;;;;4969633;28;20030;-76
2021/10/26 09:07:05;;;;;;;12.98;5.05;;;18.90;46.00;;;;;;4970104;28;20027;-77
2021/10/26 09:09:34;;;;;;;11.93;5.88;;;19.10;44.70;;;;;;4952575;28;20385;-77
2021/10/26 09:17:32;;;;;;;11.70;5.70;;;19.20;43.20;;;;;;4969468;28;20042;-77
2021/10/26 09:20:02;;;;;;;9.10;4.95;;;19.30;42.70;;;;;;4951847;28;20063;-76
2021/10/26 09:22:30;;;;;;;12.70;5.45;;;19.10;42.90;;;;;;4969137;28;20027;-77
2021/10/26 09:24:58;;;;;;;9.98;5.15;;;18.70;43.70;;;;;;4969234;28;20022;-76
2021/10/26 09:27:25;;;;;;;11.52;5.13;;;18.70;43.60;;;;;;4968266;28;20041;-77
2021/10/26 09:29:53;;;;;;;10.48;5.38;;;18.70;43.40;;;;;;4951825;28;20086;-76
2021/10/26 09:32:30;;;;;;;7.20;4.35;;;18.60;43.30;;;;;;4969252;28;20122;-76
2021/10/26 09:35:03;;;;;;;15.13;4.93;;;18.50;43.50;;;;;;4969260;28;20031;-76
2021/10/26 09:37:51;;;;;;;13.38;5.15;;;18.10;43.80;;;;;;4969246;28;20086;-75
2021/10/26 09:40:17;;;;;;;14.02;5.50;;;17.50;44.70;;;;;;4952521;28;20031;-77
2021/10/26 09:42:52;;;;;;;10.10;5.65;;;17.00;45.60;;;;;;4972409;28;20031;-76
2021/10/26 09:45:24;;;;;;;8.50;4.32;;;16.80;46.70;;;;;;4955066;28;20503;-75
2021/10/26 09:47:54;;;;;;;9.25;4.88;;;16.40;48.10;;;;;;4972618;28;20022;-78
2021/10/26 09:50:20;;;;;;;14.30;4.30;;;16.10;47.90;;;;;;4954949;28;20027;-77
2021/10/26 09:52:49;;;;;;;11.68;4.82;;;15.80;48.50;;;;;;4970586;28;20073;-77
2021/10/26 09:55:28;;;;;;;9.40;4.45;;;15.40;49.60;;;;;;4971934;28;20109;-76
2021/10/26 09:57:59;;;;;;;11.98;4.75;;;15.20;50.30;;;;;;4970878;28;20043;-76
2021/10/26 10:00:46;;;;;;;9.77;4.68;;;15.20;50.60;;;;;;4954674;28;20065;-76
2021/10/26 10:03:16;;;;;;;6.93;4.30;;;15.10;50.70;;;;;;4972066;28;20022;-77
2021/10/26 10:05:52;;;;;;;10.77;5.07;;;14.90;51.10;;;;;;4972106;28;20599;-77
2021/10/26 10:08:29;;;;;;;16.53;7.33;;;14.90;51.30;;;;;;4954822;28;20023;-76
2021/10/26 10:11:17;;;;;;;17.90;7.65;;;14.80;51.70;;;;;;4954706;28;20274;-76
2021/10/26 10:13:56;;;;;;;14.20;6.53;;;14.60;51.50;;;;;;4971943;28;20121;-78
2021/10/26 10:16:24;;;;;;;15.95;8.32;;;14.40;52.30;;;;;;4972187;28;20025;-76
2021/10/26 10:18:51;;;;;;;16.15;7.72;;;14.40;52.30;;;;;;4971873;28;20038;-76
2021/10/26 10:21:30;;;;;;;22.35;10.23;;;14.30;52.50;;;;;;4971920;28;20054;-76
2021/10/26 10:23:59;;;;;;;20.52;9.10;;;14.30;52.70;;;;;;4954716;28;20022;-75
2021/10/26 10:26:27;;;;;;;14.55;6.78;;;14.20;52.70;;;;;;4954232;28;20070;-75
2021/10/26 10:28:55;;;;;;;15.85;6.07;;;14.20;53.10;;;;;;4971862;28;20101;-77
2021/10/26 10:31:25;;;;;;;18.33;5.53;;;14.10;53.10;;;;;;4971616;28;20548;-76
2021/10/26 10:33:54;;;;;;;11.57;6.50;;;14.00;53.30;;;;;;4954319;28;20134;-77
2021/10/26 10:36:21;;;;;;;10.57;5.80;;;14.10;53.60;;;;;;4954210;28;20023;-76
2021/10/26 10:38:48;;;;;;;14.95;7.03;;;14.00;53.90;;;;;;4971297;28;20764;-77
2021/10/26 10:41:40;;;;;;;15.25;7.03;;;14.10;53.00;;;;;;4971469;28;20081;-76
2021/10/26 10:44:32;;;;;;;17.70;7.13;;;13.90;53.60;;;;;;4953991;28;20060;-75
2021/10/26 10:47:01;;;;;;;13.30;5.85;;;13.90;54.00;;;;;;4971281;28;20129;-76
2021/10/26 10:49:35;;;;;;;10.52;5.65;;;13.90;53.80;;;;;;4953886;28;20515;-76
2021/10/26 10:52:07;;;;;;;12.98;5.30;;;13.80;54.30;;;;;;4968975;28;20058;-77
2021/10/26 10:54:38;;;;;;;15.95;6.43;;;13.90;54.60;;;;;;4953815;28;20038;-76
2021/10/26 10:57:17;;;;;;;10.68;5.07;;;14.00;54.90;;;;;;4969868;28;20034;-76
2021/10/26 10:59:49;;;;;;;10.13;5.38;;;14.10;54.60;;;;;;4971177;28;20403;-76
2021/10/26 11:02:53;;;;;;;10.95;5.40;;;14.10;54.80;;;;;;4954006;28;20762;-78
2021/10/26 11:05:35;;;;;;;9.13;4.90;;;14.20;54.30;;;;;;4965873;28;20502;-76
2021/10/26 11:08:10;;;;;;;16.25;5.60;;;14.20;53.10;;;;;;4971011;28;20117;-76
2021/10/26 11:10:48;;;;;;;9.03;4.83;;;14.10;53.30;;;;;;4953550;28;20027;-76
2021/10/26 11:13:31;;;;;;;10.95;4.85;;;14.00;53.70;;;;;;4970758;28;20039;-75
2021/10/26 11:16:03;;;;;;;14.60;5.30;;;14.00;54.20;;;;;;4970903;28;20022;-76
2021/10/26 11:18:49;;;;;;;15.38;5.90;;;14.00;54.40;;;;;;4953387;28;20031;-76
2021/10/26 11:21:21;;;;;;;11.83;5.13;;;14.10;54.10;;;;;;4953198;28;20847;-76
2021/10/26 11:23:48;;;;;;;8.52;4.95;;;14.10;54.70;;;;;;4969679;28;20369;-76
2021/10/26 11:26:19;;;;;;;9.13;4.18;;;14.00;54.50;;;;;;4970628;28;20023;-75
2021/10/26 11:28:53;;;;;;;11.45;4.38;;;14.00;54.00;;;;;;4969255;28;20031;-77
2021/10/26 11:31:25;;;;;;;13.57;4.38;;;14.10;54.10;;;;;;4970604;28;20102;-75
2021/10/26 11:34:02;;;;;;;9.82;4.57;;;14.10;53.80;;;;;;4952877;28;20035;-77
2021/10/26 11:36:33;;;;;;;12.57;4.88;;;14.10;52.60;;;;;;4970307;28;20029;-79
2021/10/26 11:39:09;;;;;;;9.80;4.13;;;14.10;53.10;;;;;;4970795;28;20037;-79
2021/10/26 11:41:39;;;;;;;10.52;5.25;;;14.10;53.20;;;;;;4970776;28;20027;-77
2021/10/26 11:44:11;;;;;;;15.75;5.47;;;14.10;53.30;;;;;;4953950;28;20042;-76
2021/10/26 11:46:46;;;;;;;8.88;4.43;;;14.10;52.50;;;;;;4970230;28;20495;-77
2021/10/26 11:49:19;;;;;;;12.02;3.63;;;13.90;52.80;;;;;;4953005;28;20508;-76
2021/10/26 11:51:57;;;;;;;6.45;3.03;;;13.90;52.60;;;;;;4952987;28;20051;-76
2021/10/26 11:54:35;;;;;;;6.15;2.92;;;13.90;52.30;;;;;;4952826;28;20031;-76
2021/10/26 11:57:05;;;;;;;7.63;2.90;;;13.90;51.90;;;;;;4970240;28;20038;-76
2021/10/26 11:59:41;;;;;;;8.43;3.60;;;14.00;52.00;;;;;;4970264;28;20038;-75
2021/10/26 12:02:10;;;;;;;7.70;3.10;;;14.00;51.50;;;;;;4969981;28;20037;-77
2021/10/26 12:04:54;;;;;;;7.88;3.75;;;14.10;50.40;;;;;;4968934;28;20027;-77
2021/10/26 12:07:22;;;;;;;11.95;4.05;;;14.10;50.50;;;;;;4952832;28;20045;-76
2021/10/26 12:09:50;;;;;;;14.27;4.97;;;14.20;50.70;;;;;;4951911;28;20081;-77
2021/10/26 12:12:20;;;;;;;13.82;3.90;;;14.30;51.00;;;;;;4969870;28;20611;-76
2021/10/26 12:14:51;;;;;;;9.48;4.45;;;14.50;50.80;;;;;;4968436;28;20076;-77
2021/10/26 12:17:21;;;;;;;8.52;4.15;;;14.60;49.90;;;;;;4969768;28;20039;-76
2021/10/26 12:19:51;;;;;;;7.70;2.63;;;14.50;49.40;;;;;;4968513;28;20030;-76
2021/10/26 12:22:33;;;;;;;8.05;3.50;;;14.40;49.90;;;;;;4952520;28;20062;-77
2021/10/26 12:25:12;;;;;;;7.68;3.13;;;14.40;50.10;;;;;;4969854;28;20023;-77
2021/10/26 12:27:46;;;;;;;7.18;3.53;;;14.40;49.30;;;;;;4952403;28;20037;-77
2021/10/26 12:30:13;;;;;;;7.10;2.75;;;14.50;48.00;;;;;;4952384;28;20066;-75
2021/10/26 12:33:06;;;;;;;7.38;3.00;;;14.50;47.70;;;;;;4969495;28;20118;-77
2021/10/26 12:35:51;;;;;;;4.25;2.10;;;14.40;47.80;;;;;;4969684;28;20023;-76
2021/10/26 12:38:25;;;;;;;6.72;2.80;;;14.40;47.80;;;;;;4969893;28;20570;-76
2021/10/26 12:40:53;;;;;;;5.13;2.53;;;14.50;47.70;;;;;;4968461;28;20155;-76
2021/10/26 12:43:23;;;;;;;6.22;2.45;;;14.60;47.60;;;;;;4952386;28;20019;-77
2021/10/26 12:45:50;;;;;;;9.15;2.85;;;14.60;47.40;;;;;;4968367;28;20054;-76
2021/10/26 12:48:17;;;;;;;6.30;2.75;;;14.70;47.20;;;;;;4969606;28;20023;-75
2021/10/26 12:50:49;;;;;;;;;;;14.80;47.20;;;;;;4969894;28;20106;-76
2021/10/26 12:53:37;;;;;;;5.28;2.17;;;14.80;46.40;;;;;;4951923;28;19926;-77
2021/10/26 12:56:24;;;;;;;5.90;2.78;;;14.80;45.20;;;;;;4969556;28;20490;-76
2021/10/26 12:58:55;;;;;;;;;;;14.70;45.80;;;;;;4969812;28;20403;-76
2021/10/26 13:01:30;;;;;;;7.05;2.85;;;14.70;46.30;;;;;;4969308;28;20033;-77
2021/10/26 13:04:00;;;;;;;6.30;3.10;;;14.80;46.00;;;;;;4952010;28;20042;-74
2021/10/26 13:06:32;;;;;;;7.85;3.38;;;14.80;46.00;;;;;;4967821;28;20027;-74
2021/10/26 13:08:59;;;;;;;7.63;2.75;;;14.80;46.30;;;;;;4969328;28;20023;-74
2021/10/26 13:11:38;;;;;;;11.35;3.47;;;14.80;46.20;;;;;;4969304;28;20043;-75
2021/10/26 13:14:16;;;;;;;6.60;2.30;;;14.80;45.40;;;;;;4951917;28;20067;-76
2021/10/26 13:16:43;;;;;;;7.53;2.88;;;14.70;46.20;;;;;;4972159;28;20082;-76
2021/10/26 13:19:27;;;;;;;6.05;2.88;;;14.60;46.40;;;;;;4973017;28;20031;-75
2021/10/26 13:22:09;;;;;;;9.57;3.47;;;14.50;46.60;;;;;;4955507;28;20042;-78